createdAt,value
2018-07-09T00:01:54.826Z,15.90
2018-07-09T00:04:22.045Z,15.90
2018-07-09T00:06:49.260Z,15.80
2018-07-09T00:09:16.505Z,15.80
2018-07-09T00:11:43.729Z,15.80
2018-07-09T00:14:10.970Z,15.70
2018-07-09T00:16:38.230Z,15.70
2018-07-09T00:19:05.480Z,15.60
2018-07-09T00:21:32.700Z,15.60
2018-07-09T00:23:59.996Z,15.60
2018-07-09T00:26:27.261Z,15.50
2018-07-09T00:28:54.515Z,15.50
2018-07-09T00:31:21.753Z,15.50
2018-07-09T00:33:49.060Z,15.60
2018-07-09T00:36:16.264Z,15.60
2018-07-09T00:38:43.498Z,15.60
2018-07-09T00:41:10.732Z,15.60
2018-07-09T00:43:38.006Z,15.60
2018-07-09T00:46:05.234Z,15.50
2018-07-09T00:48:32.443Z,15.50
2018-07-09T00:50:59.712Z,15.40
2018-07-09T00:53:26.933Z,15.30
2018-07-09T00:55:54.186Z,15.30
2018-07-09T00:58:21.443Z,15.20
2018-07-09T01:00:48.632Z,15.30
2018-07-09T01:03:15.828Z,15.30
2018-07-09T01:05:43.041Z,15.20
2018-07-09T01:08:10.271Z,15.20
2018-07-09T01:11:43.352Z,15.20
2018-07-09T01:14:10.828Z,15.20
2018-07-09T01:16:38.008Z,15.10
2018-07-09T01:19:05.241Z,15.10
2018-07-09T01:21:32.453Z,15.10
2018-07-09T01:23:59.717Z,15.10
2018-07-09T01:26:26.948Z,15.10
2018-07-09T01:28:54.200Z,15.10
2018-07-09T01:31:21.424Z,15.20
2018-07-09T01:33:48.636Z,15.20
2018-07-09T01:36:15.842Z,15.10
2018-07-09T01:38:43.094Z,15.10
2018-07-09T01:41:10.381Z,15.10
2018-07-09T01:43:37.609Z,15.00
2018-07-09T01:46:04.864Z,15.00
2018-07-09T01:48:32.108Z,15.00
2018-07-09T01:50:59.379Z,15.00
2018-07-09T01:53:26.628Z,14.90
2018-07-09T01:55:53.857Z,14.90
2018-07-09T01:58:21.081Z,14.80
2018-07-09T02:00:48.292Z,14.70
2018-07-09T02:03:15.509Z,14.70
2018-07-09T02:05:42.844Z,14.60
2018-07-09T02:08:10.085Z,14.60
2018-07-09T02:10:37.292Z,14.60
2018-07-09T02:13:05.258Z,14.50
2018-07-09T02:15:32.475Z,14.50
2018-07-09T02:17:59.697Z,14.40
2018-07-09T02:20:26.956Z,14.30
2018-07-09T02:22:54.137Z,14.20
2018-07-09T02:25:21.365Z,14.20
2018-07-09T02:27:48.588Z,14.20
2018-07-09T02:30:15.817Z,14.10
2018-07-09T02:32:43.053Z,14.10
2018-07-09T02:35:10.277Z,14.00
2018-07-09T02:37:37.492Z,13.90
2018-07-09T02:40:04.727Z,13.90
2018-07-09T02:42:31.966Z,13.90
2018-07-09T02:44:59.174Z,13.90
2018-07-09T02:47:26.409Z,13.80
2018-07-09T02:49:53.624Z,13.90
2018-07-09T02:52:20.865Z,13.80
2018-07-09T02:54:48.171Z,13.80
2018-07-09T02:57:15.410Z,13.80
2018-07-09T02:59:42.662Z,13.80
2018-07-09T03:02:09.929Z,13.80
2018-07-09T03:04:37.214Z,13.80
2018-07-09T03:07:04.816Z,13.80
2018-07-09T03:09:32.098Z,13.80
2018-07-09T03:11:59.340Z,13.80
2018-07-09T03:14:26.581Z,13.80
2018-07-09T03:16:53.833Z,13.70
2018-07-09T03:19:21.162Z,13.70
2018-07-09T03:21:48.417Z,13.70
2018-07-09T03:24:15.700Z,13.70
2018-07-09T03:26:42.943Z,13.70
2018-07-09T03:29:10.191Z,13.70
2018-07-09T03:31:37.465Z,13.70
2018-07-09T03:34:04.759Z,13.80
2018-07-09T03:36:32.001Z,13.80
2018-07-09T03:38:59.244Z,13.90
2018-07-09T03:41:26.661Z,13.90
2018-07-09T03:43:53.981Z,13.90
2018-07-09T03:46:21.212Z,13.90
2018-07-09T03:48:48.457Z,13.90
2018-07-09T03:51:15.714Z,13.90
2018-07-09T03:53:43.247Z,13.90
2018-07-09T03:56:10.590Z,13.90
2018-07-09T03:58:37.813Z,13.90
2018-07-09T04:01:12.061Z,13.90
2018-07-09T04:03:39.565Z,13.90
2018-07-09T04:06:06.832Z,13.90
2018-07-09T04:08:34.053Z,13.90
2018-07-09T04:11:01.272Z,13.90
2018-07-09T04:13:28.584Z,13.80
2018-07-09T04:15:55.788Z,13.80
2018-07-09T04:18:23.968Z,13.80
2018-07-09T04:20:51.965Z,13.80
2018-07-09T04:23:19.196Z,13.80
2018-07-09T04:25:46.425Z,13.90
2018-07-09T04:28:13.643Z,13.90
2018-07-09T04:30:40.841Z,13.90
2018-07-09T04:33:08.052Z,13.90
2018-07-09T04:35:35.257Z,13.90
2018-07-09T04:38:02.481Z,13.90
2018-07-09T04:40:29.706Z,14.00
2018-07-09T04:42:57.135Z,14.00
2018-07-09T04:45:24.341Z,14.10
2018-07-09T04:47:51.573Z,14.20
2018-07-09T04:50:18.773Z,14.30
2018-07-09T04:52:45.989Z,14.30
2018-07-09T04:55:13.204Z,14.40
2018-07-09T04:57:40.445Z,14.50
2018-07-09T05:00:07.678Z,14.50
2018-07-09T05:02:34.884Z,14.60
2018-07-09T05:05:02.432Z,14.70
2018-07-09T05:07:29.774Z,14.80
2018-07-09T05:09:56.989Z,14.90
2018-07-09T05:12:24.200Z,15.00
2018-07-09T05:14:51.410Z,15.10
2018-07-09T05:17:18.625Z,15.20
2018-07-09T05:19:45.869Z,15.30
2018-07-09T05:22:13.081Z,15.40
2018-07-09T05:24:40.281Z,15.50
2018-07-09T05:27:07.693Z,15.60
2018-07-09T05:29:34.921Z,15.60
2018-07-09T05:32:02.153Z,15.70
2018-07-09T05:34:29.380Z,15.70
2018-07-09T05:36:56.633Z,15.70
2018-07-09T05:39:23.881Z,15.70
2018-07-09T05:41:51.149Z,15.80
2018-07-09T05:44:18.416Z,15.80
2018-07-09T05:46:45.662Z,15.70
2018-07-09T05:49:12.921Z,15.80
2018-07-09T05:51:40.151Z,15.80
2018-07-09T05:54:07.402Z,15.90
2018-07-09T05:56:34.614Z,15.90
2018-07-09T05:59:01.887Z,15.90
2018-07-09T06:01:29.061Z,16.00
2018-07-09T06:03:56.564Z,16.00
2018-07-09T06:06:23.797Z,16.10
2018-07-09T06:08:51.063Z,16.20
2018-07-09T06:11:18.366Z,16.30
2018-07-09T06:13:45.524Z,16.30
2018-07-09T06:16:12.740Z,16.30
2018-07-09T06:18:39.949Z,16.30
2018-07-09T06:21:07.206Z,16.30
2018-07-09T06:23:34.454Z,16.40
2018-07-09T06:26:01.706Z,16.50
2018-07-09T06:28:28.929Z,16.60
2018-07-09T06:30:56.202Z,16.60
2018-07-09T06:33:23.476Z,16.70
2018-07-09T06:35:50.708Z,16.70
2018-07-09T06:38:17.888Z,16.80
2018-07-09T06:40:45.127Z,16.80
2018-07-09T06:43:12.365Z,16.90
2018-07-09T06:45:39.580Z,17.00
2018-07-09T06:48:06.826Z,17.00
2018-07-09T06:50:34.062Z,17.10
2018-07-09T06:53:01.281Z,17.20
2018-07-09T06:55:28.521Z,17.40
2018-07-09T06:57:55.757Z,17.60
2018-07-09T07:00:23.005Z,18.40
2018-07-09T07:02:50.208Z,20.20
2018-07-09T07:05:17.428Z,21.40
2018-07-09T07:07:44.676Z,22.60
2018-07-09T07:10:11.913Z,24.10
2018-07-09T07:12:39.125Z,24.50
2018-07-09T07:15:06.418Z,25.20
2018-07-09T07:17:33.642Z,26.20
2018-07-09T07:20:00.870Z,26.20
2018-07-09T07:22:28.167Z,26.60
2018-07-09T07:24:55.398Z,26.30
2018-07-09T07:27:22.629Z,27.00
2018-07-09T07:29:49.843Z,27.00
2018-07-09T07:32:17.089Z,27.90
2018-07-09T07:34:44.373Z,28.50
2018-07-09T07:37:11.605Z,28.30
2018-07-09T07:39:38.837Z,28.70
2018-07-09T07:42:06.093Z,29.30
2018-07-09T07:44:33.329Z,29.00
2018-07-09T07:47:00.589Z,29.30
2018-07-09T07:49:27.820Z,29.80
2018-07-09T07:51:55.327Z,29.80
2018-07-09T07:54:22.550Z,29.00
2018-07-09T07:56:49.809Z,29.00
2018-07-09T07:59:17.169Z,29.10
2018-07-09T08:01:44.450Z,28.30
2018-07-09T08:04:11.701Z,28.80
2018-07-09T08:06:38.954Z,28.80
2018-07-09T08:09:06.185Z,29.00
2018-07-09T08:11:48.560Z,28.60
2018-07-09T08:14:00.866Z,28.00
2018-07-09T08:16:28.113Z,28.20
2018-07-09T08:18:55.361Z,28.70
2018-07-09T08:21:22.613Z,28.90
2018-07-09T08:23:50.116Z,29.50
2018-07-09T08:26:17.335Z,30.10
2018-07-09T08:28:44.579Z,30.20
2018-07-09T08:31:11.950Z,29.70
2018-07-09T08:36:12.109Z,30.20
2018-07-09T08:38:39.327Z,30.90
2018-07-09T08:41:06.709Z,31.40
2018-07-09T08:43:34.048Z,31.40
2018-07-09T08:46:01.290Z,31.30
2018-07-09T08:48:28.537Z,30.60
2018-07-09T08:50:55.776Z,30.80
2018-07-09T08:53:23.003Z,31.60
2018-07-09T08:55:50.254Z,31.70
2018-07-09T08:58:17.547Z,31.60
2018-07-09T09:00:44.820Z,31.70
2018-07-09T09:03:12.056Z,31.60
2018-07-09T09:05:39.284Z,31.70
2018-07-09T09:08:06.521Z,31.80
2018-07-09T09:10:33.757Z,32.20
2018-07-09T09:13:01.010Z,32.40
2018-07-09T09:15:28.292Z,32.00
2018-07-09T09:17:55.557Z,31.70
2018-07-09T09:20:22.796Z,31.50
2018-07-09T09:22:50.037Z,29.70
2018-07-09T09:25:17.284Z,29.60
2018-07-09T09:27:44.545Z,30.90
2018-07-09T09:30:11.797Z,31.60
2018-07-09T09:32:39.044Z,31.60
2018-07-09T09:35:06.321Z,32.00
2018-07-09T09:37:33.643Z,32.70
2018-07-09T09:40:00.844Z,32.90
2018-07-09T09:42:28.091Z,31.80
2018-07-09T09:44:55.350Z,32.80
2018-07-09T09:47:22.614Z,32.20
2018-07-09T09:49:49.865Z,31.70
2018-07-09T09:52:17.484Z,32.20
2018-07-09T09:54:44.737Z,32.00
2018-07-09T09:57:11.940Z,31.30
2018-07-09T09:59:39.166Z,31.60
2018-07-09T10:02:06.383Z,32.10
2018-07-09T10:04:33.605Z,32.80
2018-07-09T10:09:28.300Z,33.40
2018-07-09T10:11:55.513Z,33.70
2018-07-09T10:14:22.730Z,33.50
2018-07-09T10:16:49.972Z,34.20
2018-07-09T10:19:17.215Z,34.00
2018-07-09T10:21:44.461Z,34.30
2018-07-09T10:24:11.689Z,34.50
2018-07-09T10:26:38.929Z,34.30
2018-07-09T10:29:06.169Z,34.20
2018-07-09T10:31:33.393Z,34.20
2018-07-09T10:34:00.608Z,34.10
2018-07-09T10:36:27.829Z,33.60
2018-07-09T10:38:55.062Z,33.20
2018-07-09T10:41:22.282Z,33.10
2018-07-09T10:43:50.010Z,33.80
2018-07-09T10:46:17.240Z,33.80
2018-07-09T10:48:44.477Z,34.60
2018-07-09T10:51:11.705Z,34.30
2018-07-09T10:53:38.925Z,34.70
2018-07-09T10:56:06.261Z,34.80
2018-07-09T10:58:33.488Z,34.80
2018-07-09T11:01:00.724Z,34.20
2018-07-09T11:03:28.052Z,34.70
2018-07-09T11:05:55.276Z,34.90
2018-07-09T11:08:22.493Z,34.80
2018-07-09T11:10:49.708Z,33.70
2018-07-09T11:13:17.132Z,33.20
2018-07-09T11:15:44.353Z,33.70
2018-07-09T11:18:11.616Z,32.70
2018-07-09T11:20:38.869Z,32.90
2018-07-09T11:23:06.182Z,33.20
2018-07-09T11:25:33.548Z,33.50
2018-07-09T11:28:00.761Z,33.60
2018-07-09T11:30:28.025Z,33.40
2018-07-09T11:32:55.253Z,33.20
2018-07-09T11:35:22.494Z,33.90
2018-07-09T11:37:49.696Z,33.10
2018-07-09T11:40:16.913Z,33.20
2018-07-09T11:42:44.149Z,32.80
2018-07-09T11:45:11.552Z,31.20
2018-07-09T11:47:38.795Z,31.60
2018-07-09T11:50:06.287Z,32.10
2018-07-09T11:52:33.501Z,32.20
2018-07-09T11:55:00.728Z,32.80
2018-07-09T11:57:27.941Z,31.30
2018-07-09T11:59:55.154Z,29.60
2018-07-09T12:02:22.381Z,28.70
2018-07-09T12:04:49.650Z,27.80
2018-07-09T12:07:16.868Z,28.50
2018-07-09T12:09:44.079Z,29.80
2018-07-09T12:12:11.312Z,30.30
2018-07-09T12:14:38.535Z,30.50
2018-07-09T12:17:05.804Z,29.10
2018-07-09T12:22:00.240Z,27.40
2018-07-09T12:24:27.449Z,28.10
2018-07-09T12:26:54.669Z,29.80
2018-07-09T12:31:49.117Z,29.60
2018-07-09T12:34:16.320Z,29.40
2018-07-09T12:36:43.544Z,30.00
2018-07-09T12:39:10.814Z,30.60
2018-07-09T12:41:38.029Z,31.60
2018-07-09T12:44:05.284Z,31.80
2018-07-09T12:46:32.512Z,31.70
2018-07-09T12:49:00.877Z,32.50
2018-07-09T12:51:28.098Z,33.20
2018-07-09T12:53:55.569Z,33.70
2018-07-09T12:56:22.809Z,33.90
2018-07-09T12:58:50.229Z,33.90
2018-07-09T13:01:17.477Z,34.10
2018-07-09T13:03:44.701Z,34.20
2018-07-09T13:06:11.909Z,32.10
2018-07-09T13:08:39.116Z,32.00
2018-07-09T13:11:06.340Z,32.00
2018-07-09T13:13:33.581Z,31.60
2018-07-09T13:16:00.810Z,31.90
2018-07-09T13:18:28.035Z,32.20
2018-07-09T13:20:55.688Z,32.50
2018-07-09T13:23:22.936Z,33.20
2018-07-09T13:25:50.186Z,33.60
2018-07-09T13:28:17.449Z,34.20
2018-07-09T13:30:44.714Z,34.30
2018-07-09T13:33:11.988Z,34.10
2018-07-09T13:35:39.213Z,34.30
2018-07-09T13:38:06.488Z,33.90
2018-07-09T13:40:33.745Z,33.50
2018-07-09T13:43:01.397Z,33.50
2018-07-09T13:45:28.667Z,33.50
2018-07-09T13:47:55.926Z,33.40
2018-07-09T13:50:23.213Z,33.50
2018-07-09T13:52:50.561Z,34.00
2018-07-09T13:55:17.840Z,34.10
2018-07-09T13:57:45.138Z,34.60
2018-07-09T14:00:12.418Z,34.10
2018-07-09T14:02:39.665Z,32.60
2018-07-09T14:05:06.953Z,31.50
2018-07-09T14:07:34.192Z,30.80
2018-07-09T14:10:01.442Z,31.30
2018-07-09T14:12:28.709Z,32.00
2018-07-09T14:14:56.840Z,32.10
2018-07-09T14:17:24.220Z,31.90
2018-07-09T14:20:31.854Z,32.30
2018-07-09T14:22:59.712Z,32.00
2018-07-09T14:25:27.008Z,32.50
2018-07-09T14:27:54.353Z,31.90
2018-07-09T14:30:21.632Z,31.90
2018-07-09T14:32:48.879Z,32.20
2018-07-09T14:35:16.144Z,30.90
2018-07-09T14:37:43.609Z,30.60
2018-07-09T14:40:10.913Z,30.70
2018-07-09T14:42:38.161Z,30.60
2018-07-09T14:45:05.517Z,30.90
2018-07-09T14:47:38.512Z,30.90
2018-07-09T14:50:05.820Z,30.00
2018-07-09T14:52:33.053Z,29.00
2018-07-09T14:55:00.325Z,28.10
2018-07-09T14:57:27.577Z,28.30
2018-07-09T14:59:54.756Z,28.60
2018-07-09T15:02:22.292Z,29.60
2018-07-09T15:04:49.677Z,29.90
2018-07-09T15:07:16.941Z,30.20
2018-07-09T15:09:44.209Z,30.20
2018-07-09T15:12:11.377Z,29.70
2018-07-09T15:14:38.627Z,29.60
2018-07-09T15:17:05.991Z,29.80
2018-07-09T15:19:33.205Z,29.40
2018-07-09T15:22:00.441Z,29.80
2018-07-09T15:24:27.689Z,30.00
2018-07-09T15:26:54.917Z,30.00
2018-07-09T15:29:22.150Z,29.60
2018-07-09T15:32:01.063Z,29.60
2018-07-09T15:34:28.277Z,29.90
2018-07-09T15:36:55.499Z,30.80
2018-07-09T15:39:22.817Z,31.40
2018-07-09T15:41:50.029Z,31.80
2018-07-09T15:44:17.349Z,31.60
2018-07-09T15:46:44.684Z,31.10
2018-07-09T15:49:11.946Z,30.50
2018-07-09T15:51:39.140Z,30.50
2018-07-09T15:54:06.421Z,29.20
2018-07-09T15:56:33.667Z,28.10
2018-07-09T15:59:00.878Z,27.40
2018-07-09T16:01:28.550Z,26.90
2018-07-09T16:03:55.756Z,26.80
2018-07-09T16:06:23.280Z,26.60
2018-07-09T16:08:50.504Z,26.40
2018-07-09T16:11:18.329Z,26.00
2018-07-09T16:13:45.785Z,25.90
2018-07-09T16:16:13.010Z,25.80
2018-07-09T16:18:40.427Z,25.80
2018-07-09T16:21:08.006Z,25.90
2018-07-09T16:23:35.554Z,25.80
2018-07-09T16:26:02.785Z,25.70
2018-07-09T16:28:29.997Z,25.60
2018-07-09T16:30:57.253Z,25.80
2018-07-09T16:33:24.469Z,26.00
2018-07-09T16:35:51.774Z,26.40
2018-07-09T16:38:19.070Z,26.60
2018-07-09T16:40:46.400Z,27.00
2018-07-09T16:43:13.644Z,27.50
2018-07-09T16:45:40.901Z,27.70
2018-07-09T16:48:08.109Z,27.90
2018-07-09T16:50:35.447Z,27.90
2018-07-09T16:53:02.701Z,28.10
2018-07-09T16:55:30.009Z,28.30
2018-07-09T16:57:57.216Z,28.40
2018-07-09T17:00:24.434Z,28.90
2018-07-09T17:02:51.660Z,29.40
2018-07-09T17:05:18.906Z,28.80
2018-07-09T17:07:46.213Z,28.40
2018-07-09T17:10:13.435Z,28.30
2018-07-09T17:12:40.652Z,28.20
2018-07-09T17:15:07.874Z,28.10
2018-07-09T17:17:35.143Z,27.60
2018-07-09T17:20:02.390Z,27.60
2018-07-09T17:22:29.608Z,27.20
2018-07-09T17:24:56.839Z,26.60
2018-07-09T17:27:24.131Z,26.20
2018-07-09T17:29:51.305Z,26.00
2018-07-09T17:32:18.535Z,25.60
2018-07-09T17:34:45.773Z,25.40
2018-07-09T17:37:12.958Z,25.40
2018-07-09T17:39:40.177Z,25.30
2018-07-09T17:42:07.397Z,25.20
2018-07-09T17:44:34.896Z,25.00
2018-07-09T17:47:02.980Z,24.80
2018-07-09T17:49:30.372Z,24.70
2018-07-09T17:51:57.578Z,24.50
2018-07-09T17:54:24.921Z,24.30
2018-07-09T17:56:52.144Z,24.20
2018-07-09T17:59:19.374Z,24.00
2018-07-09T18:01:46.631Z,23.80
2018-07-09T18:04:13.897Z,23.60
2018-07-09T18:06:41.153Z,23.50
2018-07-09T18:09:08.433Z,23.40
2018-07-09T18:11:35.712Z,23.20
2018-07-09T18:14:03.006Z,23.20
2018-07-09T18:16:30.257Z,23.00
2018-07-09T18:18:57.579Z,22.90
2018-07-09T18:21:24.814Z,22.70
2018-07-09T18:26:19.328Z,22.40
2018-07-09T18:28:46.639Z,22.30
2018-07-09T18:31:13.992Z,22.20
2018-07-09T18:33:41.375Z,22.10
2018-07-09T18:36:08.711Z,22.10
2018-07-09T18:38:36.100Z,22.00
2018-07-09T18:41:03.410Z,22.00
2018-07-09T18:43:31.037Z,21.90
2018-07-09T18:45:58.408Z,21.80
2018-07-09T18:48:25.855Z,21.80
2018-07-09T18:50:53.467Z,21.70
2018-07-09T18:53:20.872Z,21.60
2018-07-09T18:55:48.246Z,21.60
2018-07-09T18:58:15.597Z,21.50
2018-07-09T19:00:43.049Z,21.40
2018-07-09T19:03:10.387Z,21.30
2018-07-09T19:05:52.015Z,21.30
2018-07-09T19:08:19.433Z,21.20
2018-07-09T19:10:46.787Z,21.10
2018-07-09T19:13:14.173Z,21.10
2018-07-09T19:18:22.994Z,20.90
2018-07-09T19:21:29.903Z,20.90
2018-07-09T19:23:56.474Z,20.90
2018-07-09T19:26:22.821Z,20.80
2018-07-09T19:28:49.274Z,20.70
2018-07-09T19:31:15.804Z,20.60
2018-07-09T19:33:42.086Z,20.50
2018-07-09T19:36:08.389Z,20.40
2018-07-09T19:38:35.257Z,20.30
2018-07-09T19:41:01.544Z,20.30
2018-07-09T19:43:27.843Z,20.20
2018-07-09T19:48:20.916Z,20.00
2018-07-09T19:50:47.577Z,20.00
2018-07-09T19:53:14.028Z,20.00
2018-07-09T19:55:40.978Z,19.90
2018-07-09T19:58:07.323Z,19.90
2018-07-09T20:00:34.697Z,19.90
2018-07-09T20:03:00.973Z,19.90
2018-07-09T20:05:27.375Z,19.80
2018-07-09T20:07:53.705Z,19.70
2018-07-09T20:10:25.641Z,19.70
2018-07-09T20:12:57.757Z,19.70
2018-07-09T20:15:29.744Z,19.60
2018-07-09T20:17:56.164Z,19.60
2018-07-09T20:20:22.458Z,19.50
2018-07-09T20:22:48.761Z,19.50
2018-07-09T20:25:15.069Z,19.50
2018-07-09T20:27:41.345Z,19.50
2018-07-09T20:30:07.649Z,19.50
2018-07-09T20:32:33.935Z,19.50
2018-07-09T20:35:00.377Z,19.40
2018-07-09T20:37:26.685Z,19.50
2018-07-09T20:39:52.980Z,19.40
2018-07-09T20:42:19.256Z,19.40
2018-07-09T20:44:45.542Z,19.40
2018-07-09T20:47:11.850Z,19.30
2018-07-09T20:49:38.148Z,19.30
2018-07-09T20:52:04.578Z,19.30
2018-07-09T20:54:30.904Z,19.30
2018-07-09T20:56:57.249Z,19.30
2018-07-09T20:59:23.958Z,19.30
2018-07-09T21:01:50.243Z,19.20
2018-07-09T21:04:31.997Z,19.20
2018-07-09T21:06:59.463Z,19.20
2018-07-09T21:09:26.497Z,19.10
2018-07-09T21:11:53.353Z,19.00
2018-07-09T21:14:19.636Z,18.90
2018-07-09T21:16:45.925Z,18.90
2018-07-09T21:19:12.201Z,18.80
2018-07-09T21:21:38.490Z,18.80
2018-07-09T21:24:04.769Z,18.80
2018-07-09T21:26:31.050Z,18.70
2018-07-09T21:28:57.414Z,18.80
2018-07-09T21:31:23.640Z,18.70
2018-07-09T21:33:49.917Z,18.70
2018-07-09T21:36:16.208Z,18.70
2018-07-09T21:38:42.806Z,18.60
2018-07-09T21:41:09.537Z,18.50
2018-07-09T21:43:35.857Z,18.50
2018-07-09T21:46:02.132Z,18.40
2018-07-09T21:48:29.780Z,18.30
2018-07-09T21:50:55.193Z,18.30
2018-07-09T21:53:22.616Z,18.20
2018-07-09T21:55:48.912Z,18.20
2018-07-09T21:58:15.187Z,18.20
2018-07-09T22:00:41.485Z,18.20
2018-07-09T22:03:07.780Z,18.10
2018-07-09T22:05:34.069Z,18.00
2018-07-09T22:08:00.349Z,18.00
2018-07-09T22:10:26.629Z,18.00
2018-07-09T22:12:52.915Z,17.90
2018-07-09T22:15:19.188Z,17.90
2018-07-09T22:17:45.472Z,17.80
2018-07-09T22:20:11.758Z,17.70
2018-07-09T22:22:38.044Z,17.70
2018-07-09T22:25:04.517Z,17.60
2018-07-09T22:27:31.424Z,17.60
2018-07-09T22:29:57.708Z,17.50
2018-07-09T22:32:24.949Z,17.40
2018-07-09T22:34:52.384Z,17.40
2018-07-09T22:37:20.273Z,17.40
2018-07-09T22:39:47.517Z,17.40
2018-07-09T22:42:14.800Z,17.30
2018-07-09T22:44:42.037Z,17.40
2018-07-09T22:47:09.283Z,17.40
2018-07-09T22:49:36.522Z,17.30
2018-07-09T22:52:03.811Z,17.30
2018-07-09T22:54:31.039Z,17.30
2018-07-09T22:56:58.280Z,17.30
2018-07-09T22:59:25.605Z,17.30
2018-07-09T23:01:52.817Z,17.30
2018-07-09T23:04:20.053Z,17.40
2018-07-09T23:06:47.285Z,17.50
2018-07-09T23:12:33.214Z,17.60
2018-07-09T23:17:15.879Z,17.60
2018-07-09T23:21:57.053Z,17.80
2018-07-09T23:24:23.905Z,17.90
2018-07-09T23:26:50.347Z,17.80
2018-07-09T23:29:16.897Z,17.70
2018-07-09T23:31:43.181Z,17.70
2018-07-09T23:34:09.455Z,17.70
2018-07-09T23:36:36.020Z,17.70
2018-07-09T23:39:02.554Z,17.80
2018-07-09T23:41:28.825Z,17.90
2018-07-09T23:46:21.852Z,18.00
2018-07-09T23:48:48.134Z,18.00
2018-07-09T23:51:14.417Z,18.00
2018-07-09T23:53:40.705Z,18.10
2018-07-09T23:56:18.213Z,18.10
2018-07-09T23:59:55.697Z,18.00
